Arlington, New Jersey
Current Conditions -  °F | °C
As of 5:51 PM on Friday 19 Dec 2014 (Local Time) from KEWR Reporting Station
Broken Clouds Broken Clouds  
Wind Chill: 23°   Ceiling: 3200
Heat Index: 33°   Visibility: 10mi
Dew Point: 21°   Wind: 14mph
Humidity: 61%   Direction: 310°NW
Pressure: 30.13"   Gusts: 22mph
Location:  40.7563°N, 74.1217°W
Report Text: KEWR 192251Z 31012G19KT 10SM BKN032 01/M06 A3013 RMK AO2 SLP202 T00061061
Loading
Personal Weather Stations






























Interactive Weather Map New forecast layout! Learn more

10-Day Weather Forecast

Advertisements
Track Severe Weather on mobile